sensor_id;sensor_type;location;lat;lon;timestamp;temperature;humidity
18888;DHT22;9576;47.792;9.628;2022-11-03T00:00:26;6.60;99.90
18888;DHT22;9576;47.792;9.628;2022-11-03T00:03:28;6.60;99.90
18888;DHT22;9576;47.792;9.628;2022-11-03T00:06:30;6.60;99.90
18888;DHT22;9576;47.792;9.628;2022-11-03T00:09:32;6.50;99.90
18888;DHT22;9576;47.792;9.628;2022-11-03T00:12:34;6.50;99.90
18888;DHT22;9576;47.792;9.628;2022-11-03T00:15:47;6.50;99.90
18888;DHT22;9576;47.792;9.628;2022-11-03T00:18:49;6.40;99.90
18888;DHT22;9576;47.792;9.628;2022-11-03T00:21:51;6.50;99.90
18888;DHT22;9576;47.792;9.628;2022-11-03T00:24:53;6.50;99.90
18888;DHT22;9576;47.792;9.628;2022-11-03T00:27:55;6.40;99.90
18888;DHT22;9576;47.792;9.628;2022-11-03T00:30:59;6.40;99.90
18888;DHT22;9576;47.792;9.628;2022-11-03T00:34:02;6.30;99.90
18888;DHT22;9576;47.792;9.628;2022-11-03T00:37:04;6.30;99.90
18888;DHT22;9576;47.792;9.628;2022-11-03T00:40:07;6.30;99.90
18888;DHT22;9576;47.792;9.628;2022-11-03T00:43:10;6.30;99.90
18888;DHT22;9576;47.792;9.628;2022-11-03T00:46:16;6.30;99.90
18888;DHT22;9576;47.792;9.628;2022-11-03T00:49:18;6.20;99.90
18888;DHT22;9576;47.792;9.628;2022-11-03T00:52:20;6.10;99.90
18888;DHT22;9576;47.792;9.628;2022-11-03T00:55:22;6.10;99.90
18888;DHT22;9576;47.792;9.628;2022-11-03T00:58:24;6.10;99.90
18888;DHT22;9576;47.792;9.628;2022-11-03T01:01:29;6.10;99.90
18888;DHT22;9576;47.792;9.628;2022-11-03T01:04:31;6.10;99.90
18888;DHT22;9576;47.792;9.628;2022-11-03T01:07:52;6.00;99.90
18888;DHT22;9576;47.792;9.628;2022-11-03T01:10:54;6.00;99.90
18888;DHT22;9576;47.792;9.628;2022-11-03T01:14:15;5.90;99.90
18888;DHT22;9576;47.792;9.628;2022-11-03T01:17:19;5.90;99.90
18888;DHT22;9576;47.792;9.628;2022-11-03T01:20:21;5.90;99.90
18888;DHT22;9576;47.792;9.628;2022-11-03T01:23:23;5.90;99.90
18888;DHT22;9576;47.792;9.628;2022-11-03T01:26:25;5.90;99.90
18888;DHT22;9576;47.792;9.628;2022-11-03T01:29:27;5.90;99.90
18888;DHT22;9576;47.792;9.628;2022-11-03T01:32:30;5.90;99.90
18888;DHT22;9576;47.792;9.628;2022-11-03T01:35:32;5.90;99.90
18888;DHT22;9576;47.792;9.628;2022-11-03T01:38:35;5.80;99.90
18888;DHT22;9576;47.792;9.628;2022-11-03T01:41:37;5.80;99.90
18888;DHT22;9576;47.792;9.628;2022-11-03T01:44:42;5.80;99.90
18888;DHT22;9576;47.792;9.628;2022-11-03T01:47:47;5.80;99.90
18888;DHT22;9576;47.792;9.628;2022-11-03T01:50:50;5.80;99.90
18888;DHT22;9576;47.792;9.628;2022-11-03T01:53:55;5.80;99.90
18888;DHT22;9576;47.792;9.628;2022-11-03T01:56:59;5.80;99.90
18888;DHT22;9576;47.792;9.628;2022-11-03T02:00:06;5.70;99.90
18888;DHT22;9576;47.792;9.628;2022-11-03T02:03:10;5.70;99.90
18888;DHT22;9576;47.792;9.628;2022-11-03T02:06:13;5.60;99.90
18888;DHT22;9576;47.792;9.628;2022-11-03T02:09:16;5.50;99.90
18888;DHT22;9576;47.792;9.628;2022-11-03T02:12:19;5.50;99.90
18888;DHT22;9576;47.792;9.628;2022-11-03T02:15:22;5.50;99.90
18888;DHT22;9576;47.792;9.628;2022-11-03T02:18:28;5.50;99.90
18888;DHT22;9576;47.792;9.628;2022-11-03T02:21:37;5.50;99.90
18888;DHT22;9576;47.792;9.628;2022-11-03T02:24:46;5.50;99.90
18888;DHT22;9576;47.792;9.628;2022-11-03T02:27:50;5.50;99.90
18888;DHT22;9576;47.792;9.628;2022-11-03T02:31:00;5.50;99.90
18888;DHT22;9576;47.792;9.628;2022-11-03T02:34:06;5.50;99.90
18888;DHT22;9576;47.792;9.628;2022-11-03T02:37:14;5.50;99.90
18888;DHT22;9576;47.792;9.628;2022-11-03T02:40:21;5.50;99.90
18888;DHT22;9576;47.792;9.628;2022-11-03T02:43:27;5.40;99.90
18888;DHT22;9576;47.792;9.628;2022-11-03T02:46:31;5.40;99.90
18888;DHT22;9576;47.792;9.628;2022-11-03T02:49:37;5.40;99.90
18888;DHT22;9576;47.792;9.628;2022-11-03T02:52:43;5.30;99.90
18888;DHT22;9576;47.792;9.628;2022-11-03T02:55:50;5.30;99.90
18888;DHT22;9576;47.792;9.628;2022-11-03T02:58:59;5.30;99.90
18888;DHT22;9576;47.792;9.628;2022-11-03T03:02:07;5.30;99.90
18888;DHT22;9576;47.792;9.628;2022-11-03T03:05:13;5.30;99.90
18888;DHT22;9576;47.792;9.628;2022-11-03T03:08:18;5.30;99.90
18888;DHT22;9576;47.792;9.628;2022-11-03T03:11:22;5.20;99.90
18888;DHT22;9576;47.792;9.628;2022-11-03T03:14:39;5.20;99.90
18888;DHT22;9576;47.792;9.628;2022-11-03T03:17:44;5.20;99.90
18888;DHT22;9576;47.792;9.628;2022-11-03T03:20:54;5.20;99.90
18888;DHT22;9576;47.792;9.628;2022-11-03T03:23:58;5.20;99.90
18888;DHT22;9576;47.792;9.628;2022-11-03T03:27:03;5.20;99.90
18888;DHT22;9576;47.792;9.628;2022-11-03T03:30:11;5.20;99.90
18888;DHT22;9576;47.792;9.628;2022-11-03T03:33:14;5.10;99.90
18888;DHT22;9576;47.792;9.628;2022-11-03T03:36:17;5.20;99.90
18888;DHT22;9576;47.792;9.628;2022-11-03T03:39:21;5.20;99.90
18888;DHT22;9576;47.792;9.628;2022-11-03T03:42:26;5.20;99.90
18888;DHT22;9576;47.792;9.628;2022-11-03T03:45:30;5.10;99.90
18888;DHT22;9576;47.792;9.628;2022-11-03T03:48:33;5.10;99.90
18888;DHT22;9576;47.792;9.628;2022-11-03T03:51:36;5.10;99.90
18888;DHT22;9576;47.792;9.628;2022-11-03T03:54:38;5.10;99.90
18888;DHT22;9576;47.792;9.628;2022-11-03T03:57:40;5.20;99.90
18888;DHT22;9576;47.792;9.628;2022-11-03T04:00:44;5.30;99.90
18888;DHT22;9576;47.792;9.628;2022-11-03T04:03:45;5.40;99.90
18888;DHT22;9576;47.792;9.628;2022-11-03T04:06:47;5.50;99.90
18888;DHT22;9576;47.792;9.628;2022-11-03T04:09:49;5.60;99.90
18888;DHT22;9576;47.792;9.628;2022-11-03T04:12:51;5.70;99.90
18888;DHT22;9576;47.792;9.628;2022-11-03T04:16:12;5.60;99.90
18888;DHT22;9576;47.792;9.628;2022-11-03T04:19:31;5.60;99.90
18888;DHT22;9576;47.792;9.628;2022-11-03T04:22:51;5.40;99.90
18888;DHT22;9576;47.792;9.628;2022-11-03T04:25:55;5.30;99.90
18888;DHT22;9576;47.792;9.628;2022-11-03T04:28:57;5.30;99.90
18888;DHT22;9576;47.792;9.628;2022-11-03T04:32:14;5.40;99.90
18888;DHT22;9576;47.792;9.628;2022-11-03T04:35:19;5.50;99.90
18888;DHT22;9576;47.792;9.628;2022-11-03T04:38:23;5.60;99.90
18888;DHT22;9576;47.792;9.628;2022-11-03T04:41:31;5.60;99.90
18888;DHT22;9576;47.792;9.628;2022-11-03T04:44:33;5.70;99.90
18888;DHT22;9576;47.792;9.628;2022-11-03T04:47:36;5.70;99.90
18888;DHT22;9576;47.792;9.628;2022-11-03T04:50:39;5.80;99.90
18888;DHT22;9576;47.792;9.628;2022-11-03T04:53:45;5.80;99.90
18888;DHT22;9576;47.792;9.628;2022-11-03T04:56:48;5.80;99.90
18888;DHT22;9576;47.792;9.628;2022-11-03T04:59:50;5.80;99.90
18888;DHT22;9576;47.792;9.628;2022-11-03T05:02:53;5.80;99.90
18888;DHT22;9576;47.792;9.628;2022-11-03T05:05:56;5.70;99.90
18888;DHT22;9576;47.792;9.628;2022-11-03T05:09:00;5.70;99.90
18888;DHT22;9576;47.792;9.628;2022-11-03T05:12:03;5.80;99.90
18888;DHT22;9576;47.792;9.628;2022-11-03T05:15:21;5.80;99.90
18888;DHT22;9576;47.792;9.628;2022-11-03T05:18:30;5.80;99.90
18888;DHT22;9576;47.792;9.628;2022-11-03T05:21:33;5.80;99.90
18888;DHT22;9576;47.792;9.628;2022-11-03T05:24:35;5.80;99.90
18888;DHT22;9576;47.792;9.628;2022-11-03T05:27:36;5.90;99.90
18888;DHT22;9576;47.792;9.628;2022-11-03T05:30:39;5.90;99.90
18888;DHT22;9576;47.792;9.628;2022-11-03T05:33:42;6.00;99.90
18888;DHT22;9576;47.792;9.628;2022-11-03T05:36:46;6.00;99.90
18888;DHT22;9576;47.792;9.628;2022-11-03T05:39:49;6.10;99.90
18888;DHT22;9576;47.792;9.628;2022-11-03T05:42:54;6.10;99.90
18888;DHT22;9576;47.792;9.628;2022-11-03T05:46:01;6.10;99.90
18888;DHT22;9576;47.792;9.628;2022-11-03T05:49:06;6.10;99.90
18888;DHT22;9576;47.792;9.628;2022-11-03T05:52:14;6.00;99.90
18888;DHT22;9576;47.792;9.628;2022-11-03T05:55:29;6.10;99.90
18888;DHT22;9576;47.792;9.628;2022-11-03T05:58:35;6.10;99.90
18888;DHT22;9576;47.792;9.628;2022-11-03T06:01:38;6.10;99.90
18888;DHT22;9576;47.792;9.628;2022-11-03T06:04:42;6.00;99.90
18888;DHT22;9576;47.792;9.628;2022-11-03T06:07:44;6.10;99.90
18888;DHT22;9576;47.792;9.628;2022-11-03T06:10:48;5.90;99.90
18888;DHT22;9576;47.792;9.628;2022-11-03T06:13:50;6.00;99.90
18888;DHT22;9576;47.792;9.628;2022-11-03T06:16:54;6.10;99.90
18888;DHT22;9576;47.792;9.628;2022-11-03T06:19:58;6.00;99.90
18888;DHT22;9576;47.792;9.628;2022-11-03T06:23:01;5.90;99.90
18888;DHT22;9576;47.792;9.628;2022-11-03T06:26:03;5.80;99.90
18888;DHT22;9576;47.792;9.628;2022-11-03T06:29:12;5.90;99.90
18888;DHT22;9576;47.792;9.628;2022-11-03T06:32:15;5.90;99.90
18888;DHT22;9576;47.792;9.628;2022-11-03T06:35:18;5.90;99.90
18888;DHT22;9576;47.792;9.628;2022-11-03T06:38:23;5.90;99.90
18888;DHT22;9576;47.792;9.628;2022-11-03T06:41:28;5.90;99.90
18888;DHT22;9576;47.792;9.628;2022-11-03T06:44:31;5.90;99.90
18888;DHT22;9576;47.792;9.628;2022-11-03T06:47:33;6.00;99.90
18888;DHT22;9576;47.792;9.628;2022-11-03T06:50:36;6.00;99.90
18888;DHT22;9576;47.792;9.628;2022-11-03T06:53:38;5.90;99.90
18888;DHT22;9576;47.792;9.628;2022-11-03T06:56:40;6.00;99.90
18888;DHT22;9576;47.792;9.628;2022-11-03T06:59:43;6.10;99.90
18888;DHT22;9576;47.792;9.628;2022-11-03T07:02:56;6.20;99.90
18888;DHT22;9576;47.792;9.628;2022-11-03T07:06:03;6.20;99.90
18888;DHT22;9576;47.792;9.628;2022-11-03T07:09:10;6.20;99.90
18888;DHT22;9576;47.792;9.628;2022-11-03T07:12:16;6.20;99.90
18888;DHT22;9576;47.792;9.628;2022-11-03T07:15:27;6.30;99.90
18888;DHT22;9576;47.792;9.628;2022-11-03T07:18:34;6.30;99.90
18888;DHT22;9576;47.792;9.628;2022-11-03T07:21:44;6.30;99.90
18888;DHT22;9576;47.792;9.628;2022-11-03T07:24:47;6.30;99.90
18888;DHT22;9576;47.792;9.628;2022-11-03T07:27:51;6.50;99.90
18888;DHT22;9576;47.792;9.628;2022-11-03T07:30:54;6.50;99.90
18888;DHT22;9576;47.792;9.628;2022-11-03T07:33:57;6.70;99.90
18888;DHT22;9576;47.792;9.628;2022-11-03T07:37:01;6.70;99.90
18888;DHT22;9576;47.792;9.628;2022-11-03T07:40:10;6.70;99.90
18888;DHT22;9576;47.792;9.628;2022-11-03T07:43:14;6.70;99.90
18888;DHT22;9576;47.792;9.628;2022-11-03T07:46:19;6.90;99.90
18888;DHT22;9576;47.792;9.628;2022-11-03T07:49:26;6.90;99.90
18888;DHT22;9576;47.792;9.628;2022-11-03T07:52:29;7.00;99.90
18888;DHT22;9576;47.792;9.628;2022-11-03T07:55:31;7.00;99.90
18888;DHT22;9576;47.792;9.628;2022-11-03T07:58:34;7.10;99.90
18888;DHT22;9576;47.792;9.628;2022-11-03T08:01:39;7.10;99.90
18888;DHT22;9576;47.792;9.628;2022-11-03T08:04:42;7.20;99.90
18888;DHT22;9576;47.792;9.628;2022-11-03T08:07:45;7.30;99.90
18888;DHT22;9576;47.792;9.628;2022-11-03T08:10:47;7.30;99.90
18888;DHT22;9576;47.792;9.628;2022-11-03T08:13:50;7.40;99.90
18888;DHT22;9576;47.792;9.628;2022-11-03T08:16:52;7.30;99.90
18888;DHT22;9576;47.792;9.628;2022-11-03T08:19:54;7.30;99.90
18888;DHT22;9576;47.792;9.628;2022-11-03T08:22:57;7.30;99.90
18888;DHT22;9576;47.792;9.628;2022-11-03T08:25:59;7.40;99.90
18888;DHT22;9576;47.792;9.628;2022-11-03T08:29:01;7.60;99.90
18888;DHT22;9576;47.792;9.628;2022-11-03T08:32:03;7.60;99.90
18888;DHT22;9576;47.792;9.628;2022-11-03T08:35:06;7.60;99.90
18888;DHT22;9576;47.792;9.628;2022-11-03T08:38:09;7.60;99.90
18888;DHT22;9576;47.792;9.628;2022-11-03T08:41:11;7.60;99.90
18888;DHT22;9576;47.792;9.628;2022-11-03T08:44:13;7.70;99.90
18888;DHT22;9576;47.792;9.628;2022-11-03T08:47:15;7.80;99.90
18888;DHT22;9576;47.792;9.628;2022-11-03T08:50:17;8.00;99.90
18888;DHT22;9576;47.792;9.628;2022-11-03T08:53:20;8.00;99.90
18888;DHT22;9576;47.792;9.628;2022-11-03T08:56:22;8.10;99.90
18888;DHT22;9576;47.792;9.628;2022-11-03T08:59:24;8.20;99.90
18888;DHT22;9576;47.792;9.628;2022-11-03T09:02:26;8.30;99.90
18888;DHT22;9576;47.792;9.628;2022-11-03T09:05:27;8.30;99.90
18888;DHT22;9576;47.792;9.628;2022-11-03T09:08:31;8.30;99.90
18888;DHT22;9576;47.792;9.628;2022-11-03T09:11:33;8.40;99.90
18888;DHT22;9576;47.792;9.628;2022-11-03T09:14:35;8.40;99.90
18888;DHT22;9576;47.792;9.628;2022-11-03T09:17:37;8.40;99.90
18888;DHT22;9576;47.792;9.628;2022-11-03T09:20:39;8.50;99.90
18888;DHT22;9576;47.792;9.628;2022-11-03T09:23:42;8.60;99.90
18888;DHT22;9576;47.792;9.628;2022-11-03T09:26:44;8.70;99.90
18888;DHT22;9576;47.792;9.628;2022-11-03T09:29:46;8.70;99.90
18888;DHT22;9576;47.792;9.628;2022-11-03T09:32:48;8.70;99.90
18888;DHT22;9576;47.792;9.628;2022-11-03T09:35:50;8.70;99.90
18888;DHT22;9576;47.792;9.628;2022-11-03T09:38:53;8.80;99.90
18888;DHT22;9576;47.792;9.628;2022-11-03T09:41:55;8.80;99.90
18888;DHT22;9576;47.792;9.628;2022-11-03T09:45:00;8.90;99.90
18888;DHT22;9576;47.792;9.628;2022-11-03T09:48:02;9.00;99.90
18888;DHT22;9576;47.792;9.628;2022-11-03T09:51:05;9.00;99.90
18888;DHT22;9576;47.792;9.628;2022-11-03T09:54:11;8.90;99.90
18888;DHT22;9576;47.792;9.628;2022-11-03T09:57:15;8.90;99.90
18888;DHT22;9576;47.792;9.628;2022-11-03T10:00:19;9.00;99.90
18888;DHT22;9576;47.792;9.628;2022-11-03T10:03:21;9.10;99.90
18888;DHT22;9576;47.792;9.628;2022-11-03T10:06:23;9.10;99.90
18888;DHT22;9576;47.792;9.628;2022-11-03T10:09:28;9.20;99.90
18888;DHT22;9576;47.792;9.628;2022-11-03T10:12:33;9.30;99.90
18888;DHT22;9576;47.792;9.628;2022-11-03T10:15:36;9.30;99.90
18888;DHT22;9576;47.792;9.628;2022-11-03T10:18:41;9.40;99.90
18888;DHT22;9576;47.792;9.628;2022-11-03T10:21:43;9.30;99.90
18888;DHT22;9576;47.792;9.628;2022-11-03T10:24:47;9.20;99.90
18888;DHT22;9576;47.792;9.628;2022-11-03T10:27:49;9.10;99.90
18888;DHT22;9576;47.792;9.628;2022-11-03T10:30:54;9.00;99.90
18888;DHT22;9576;47.792;9.628;2022-11-03T10:33:56;9.10;99.90
18888;DHT22;9576;47.792;9.628;2022-11-03T10:37:16;9.10;99.90
18888;DHT22;9576;47.792;9.628;2022-11-03T10:40:34;9.20;99.90
18888;DHT22;9576;47.792;9.628;2022-11-03T10:43:37;9.30;99.90
18888;DHT22;9576;47.792;9.628;2022-11-03T10:46:39;9.30;99.90
18888;DHT22;9576;47.792;9.628;2022-11-03T10:49:42;9.30;99.90
18888;DHT22;9576;47.792;9.628;2022-11-03T10:52:44;9.30;99.90
18888;DHT22;9576;47.792;9.628;2022-11-03T10:55:47;9.40;99.90
18888;DHT22;9576;47.792;9.628;2022-11-03T10:58:49;9.40;99.90
18888;DHT22;9576;47.792;9.628;2022-11-03T11:01:51;9.30;99.90
18888;DHT22;9576;47.792;9.628;2022-11-03T11:04:57;9.40;99.90
18888;DHT22;9576;47.792;9.628;2022-11-03T11:08:00;9.40;99.90
18888;DHT22;9576;47.792;9.628;2022-11-03T11:11:06;9.40;99.90
18888;DHT22;9576;47.792;9.628;2022-11-03T11:14:21;9.30;99.90
18888;DHT22;9576;47.792;9.628;2022-11-03T11:17:46;9.30;99.90
18888;DHT22;9576;47.792;9.628;2022-11-03T11:20:49;9.30;99.90
18888;DHT22;9576;47.792;9.628;2022-11-03T11:23:51;9.40;99.90
18888;DHT22;9576;47.792;9.628;2022-11-03T11:26:54;9.50;99.90
18888;DHT22;9576;47.792;9.628;2022-11-03T11:29:56;9.50;99.90
18888;DHT22;9576;47.792;9.628;2022-11-03T11:32:59;9.40;99.90
18888;DHT22;9576;47.792;9.628;2022-11-03T11:36:25;9.30;99.90
18888;DHT22;9576;47.792;9.628;2022-11-03T11:39:42;9.20;99.90
18888;DHT22;9576;47.792;9.628;2022-11-03T11:46:40;9.20;99.90
18888;DHT22;9576;47.792;9.628;2022-11-03T11:49:42;9.00;99.90
18888;DHT22;9576;47.792;9.628;2022-11-03T11:52:46;9.00;99.90
18888;DHT22;9576;47.792;9.628;2022-11-03T11:55:50;9.00;99.90
18888;DHT22;9576;47.792;9.628;2022-11-03T11:58:54;9.10;99.90
18888;DHT22;9576;47.792;9.628;2022-11-03T12:01:57;9.20;99.90
18888;DHT22;9576;47.792;9.628;2022-11-03T12:04:59;9.30;99.90
18888;DHT22;9576;47.792;9.628;2022-11-03T12:08:16;9.30;99.90
18888;DHT22;9576;47.792;9.628;2022-11-03T12:11:39;9.40;99.90
18888;DHT22;9576;47.792;9.628;2022-11-03T12:14:42;9.50;99.90
18888;DHT22;9576;47.792;9.628;2022-11-03T12:17:46;9.70;99.90
18888;DHT22;9576;47.792;9.628;2022-11-03T12:20:48;9.90;99.90
18888;DHT22;9576;47.792;9.628;2022-11-03T12:23:49;10.10;99.90
18888;DHT22;9576;47.792;9.628;2022-11-03T12:26:51;10.20;99.90
18888;DHT22;9576;47.792;9.628;2022-11-03T12:29:55;10.30;99.90
18888;DHT22;9576;47.792;9.628;2022-11-03T12:32:59;10.50;99.90
18888;DHT22;9576;47.792;9.628;2022-11-03T12:36:01;10.60;99.90
18888;DHT22;9576;47.792;9.628;2022-11-03T12:39:03;10.50;99.90
18888;DHT22;9576;47.792;9.628;2022-11-03T12:42:05;10.40;99.90
18888;DHT22;9576;47.792;9.628;2022-11-03T12:45:08;10.60;99.90
18888;DHT22;9576;47.792;9.628;2022-11-03T12:48:11;10.80;99.90
18888;DHT22;9576;47.792;9.628;2022-11-03T12:51:15;11.00;99.90
18888;DHT22;9576;47.792;9.628;2022-11-03T12:54:17;11.00;99.90
18888;DHT22;9576;47.792;9.628;2022-11-03T12:57:19;11.20;99.90
18888;DHT22;9576;47.792;9.628;2022-11-03T13:00:21;11.30;99.90
18888;DHT22;9576;47.792;9.628;2022-11-03T13:03:24;11.40;99.90
18888;DHT22;9576;47.792;9.628;2022-11-03T13:06:26;11.60;99.90
18888;DHT22;9576;47.792;9.628;2022-11-03T13:09:28;11.70;99.90
18888;DHT22;9576;47.792;9.628;2022-11-03T13:12:30;11.80;99.90
18888;DHT22;9576;47.792;9.628;2022-11-03T13:15:32;11.80;99.90
18888;DHT22;9576;47.792;9.628;2022-11-03T13:18:36;11.80;99.90
18888;DHT22;9576;47.792;9.628;2022-11-03T13:21:37;11.80;99.90
18888;DHT22;9576;47.792;9.628;2022-11-03T13:24:39;11.80;99.90
18888;DHT22;9576;47.792;9.628;2022-11-03T13:27:41;11.80;99.90
18888;DHT22;9576;47.792;9.628;2022-11-03T13:30:43;11.30;99.90
18888;DHT22;9576;47.792;9.628;2022-11-03T13:33:46;11.10;99.90
18888;DHT22;9576;47.792;9.628;2022-11-03T13:36:50;10.90;99.90
18888;DHT22;9576;47.792;9.628;2022-11-03T13:39:52;10.80;99.90
18888;DHT22;9576;47.792;9.628;2022-11-03T13:42:54;10.80;99.90
18888;DHT22;9576;47.792;9.628;2022-11-03T13:45:56;10.60;99.90
18888;DHT22;9576;47.792;9.628;2022-11-03T13:49:02;10.60;99.90
18888;DHT22;9576;47.792;9.628;2022-11-03T13:52:04;10.70;99.90
18888;DHT22;9576;47.792;9.628;2022-11-03T13:55:06;10.60;99.90
18888;DHT22;9576;47.792;9.628;2022-11-03T13:58:08;10.60;99.90
18888;DHT22;9576;47.792;9.628;2022-11-03T14:01:10;10.60;99.90
18888;DHT22;9576;47.792;9.628;2022-11-03T14:04:13;10.60;99.90
18888;DHT22;9576;47.792;9.628;2022-11-03T14:07:15;10.60;99.90
18888;DHT22;9576;47.792;9.628;2022-11-03T14:10:17;10.60;99.90
18888;DHT22;9576;47.792;9.628;2022-11-03T14:13:19;10.50;99.90
18888;DHT22;9576;47.792;9.628;2022-11-03T14:16:20;10.40;99.90
18888;DHT22;9576;47.792;9.628;2022-11-03T14:19:23;10.40;99.90
18888;DHT22;9576;47.792;9.628;2022-11-03T14:22:25;10.10;99.90
18888;DHT22;9576;47.792;9.628;2022-11-03T14:25:27;9.90;99.90
18888;DHT22;9576;47.792;9.628;2022-11-03T14:28:29;9.70;99.90
18888;DHT22;9576;47.792;9.628;2022-11-03T14:31:31;9.60;99.90
18888;DHT22;9576;47.792;9.628;2022-11-03T14:34:34;9.60;99.90
18888;DHT22;9576;47.792;9.628;2022-11-03T14:37:37;9.60;99.90
18888;DHT22;9576;47.792;9.628;2022-11-03T14:40:39;9.50;99.90
18888;DHT22;9576;47.792;9.628;2022-11-03T14:43:58;9.60;99.90
18888;DHT22;9576;47.792;9.628;2022-11-03T14:47:03;9.50;99.90
18888;DHT22;9576;47.792;9.628;2022-11-03T14:50:07;9.60;99.90
18888;DHT22;9576;47.792;9.628;2022-11-03T14:53:09;9.80;99.90
18888;DHT22;9576;47.792;9.628;2022-11-03T14:56:11;9.80;99.90
18888;DHT22;9576;47.792;9.628;2022-11-03T14:59:12;9.80;99.90
18888;DHT22;9576;47.792;9.628;2022-11-03T15:02:14;9.80;99.90
18888;DHT22;9576;47.792;9.628;2022-11-03T15:05:18;9.80;99.90
18888;DHT22;9576;47.792;9.628;2022-11-03T15:08:33;9.90;99.90
18888;DHT22;9576;47.792;9.628;2022-11-03T15:11:36;9.90;99.90
18888;DHT22;9576;47.792;9.628;2022-11-03T15:14:38;10.00;99.90
18888;DHT22;9576;47.792;9.628;2022-11-03T15:17:40;10.00;99.90
18888;DHT22;9576;47.792;9.628;2022-11-03T15:20:43;10.00;99.90
18888;DHT22;9576;47.792;9.628;2022-11-03T15:23:45;10.00;99.90
18888;DHT22;9576;47.792;9.628;2022-11-03T15:26:47;10.10;99.90
18888;DHT22;9576;47.792;9.628;2022-11-03T15:29:50;10.10;99.90
18888;DHT22;9576;47.792;9.628;2022-11-03T15:32:52;10.10;99.90
18888;DHT22;9576;47.792;9.628;2022-11-03T15:35:55;10.10;99.90
18888;DHT22;9576;47.792;9.628;2022-11-03T15:38:57;10.10;99.90
18888;DHT22;9576;47.792;9.628;2022-11-03T15:41:59;10.10;99.90
18888;DHT22;9576;47.792;9.628;2022-11-03T15:45:01;10.10;99.90
18888;DHT22;9576;47.792;9.628;2022-11-03T15:48:03;10.00;99.90
18888;DHT22;9576;47.792;9.628;2022-11-03T15:51:07;10.00;99.90
18888;DHT22;9576;47.792;9.628;2022-11-03T15:54:09;9.90;99.90
18888;DHT22;9576;47.792;9.628;2022-11-03T15:57:11;9.80;99.90
18888;DHT22;9576;47.792;9.628;2022-11-03T16:00:13;9.70;99.90
18888;DHT22;9576;47.792;9.628;2022-11-03T16:03:15;9.70;99.90
18888;DHT22;9576;47.792;9.628;2022-11-03T16:06:18;9.60;99.90
18888;DHT22;9576;47.792;9.628;2022-11-03T16:09:21;9.60;99.90
18888;DHT22;9576;47.792;9.628;2022-11-03T16:12:23;9.60;99.90
18888;DHT22;9576;47.792;9.628;2022-11-03T16:15:25;9.60;99.90
18888;DHT22;9576;47.792;9.628;2022-11-03T16:18:27;9.50;99.90
18888;DHT22;9576;47.792;9.628;2022-11-03T16:21:31;9.50;99.90
18888;DHT22;9576;47.792;9.628;2022-11-03T16:24:32;9.50;99.90
18888;DHT22;9576;47.792;9.628;2022-11-03T16:27:35;9.50;99.90
18888;DHT22;9576;47.792;9.628;2022-11-03T16:30:37;9.50;99.90
18888;DHT22;9576;47.792;9.628;2022-11-03T16:33:39;9.40;99.90
18888;DHT22;9576;47.792;9.628;2022-11-03T16:36:42;9.40;99.90
18888;DHT22;9576;47.792;9.628;2022-11-03T16:39:44;9.50;99.90
18888;DHT22;9576;47.792;9.628;2022-11-03T16:42:46;9.50;99.90
18888;DHT22;9576;47.792;9.628;2022-11-03T16:45:48;9.50;99.90
18888;DHT22;9576;47.792;9.628;2022-11-03T16:48:54;9.50;99.90
18888;DHT22;9576;47.792;9.628;2022-11-03T16:51:58;9.50;99.90
18888;DHT22;9576;47.792;9.628;2022-11-03T16:55:00;9.50;99.90
18888;DHT22;9576;47.792;9.628;2022-11-03T16:58:02;9.50;99.90
18888;DHT22;9576;47.792;9.628;2022-11-03T17:01:04;9.50;99.90
18888;DHT22;9576;47.792;9.628;2022-11-03T17:04:06;9.50;99.90
18888;DHT22;9576;47.792;9.628;2022-11-03T17:07:09;9.50;99.90
18888;DHT22;9576;47.792;9.628;2022-11-03T17:10:11;9.50;99.90
18888;DHT22;9576;47.792;9.628;2022-11-03T17:13:14;9.50;99.90
18888;DHT22;9576;47.792;9.628;2022-11-03T17:16:15;9.50;99.90
18888;DHT22;9576;47.792;9.628;2022-11-03T17:19:17;9.50;99.90
18888;DHT22;9576;47.792;9.628;2022-11-03T17:22:21;9.50;99.90
18888;DHT22;9576;47.792;9.628;2022-11-03T17:25:24;9.50;99.90
18888;DHT22;9576;47.792;9.628;2022-11-03T17:28:26;9.50;99.90
18888;DHT22;9576;47.792;9.628;2022-11-03T17:31:28;9.50;99.90
18888;DHT22;9576;47.792;9.628;2022-11-03T17:34:30;9.40;99.90
18888;DHT22;9576;47.792;9.628;2022-11-03T17:37:34;9.40;99.90
18888;DHT22;9576;47.792;9.628;2022-11-03T17:40:36;9.40;99.90
18888;DHT22;9576;47.792;9.628;2022-11-03T17:43:38;9.40;99.90
18888;DHT22;9576;47.792;9.628;2022-11-03T17:46:41;9.40;99.90
18888;DHT22;9576;47.792;9.628;2022-11-03T17:49:44;9.40;99.90
18888;DHT22;9576;47.792;9.628;2022-11-03T17:52:49;9.40;99.90
18888;DHT22;9576;47.792;9.628;2022-11-03T17:55:52;9.30;99.90
18888;DHT22;9576;47.792;9.628;2022-11-03T17:58:54;9.40;99.90
18888;DHT22;9576;47.792;9.628;2022-11-03T18:01:56;9.40;99.90
18888;DHT22;9576;47.792;9.628;2022-11-03T18:05:11;9.40;99.90
18888;DHT22;9576;47.792;9.628;2022-11-03T18:08:16;9.40;99.90
18888;DHT22;9576;47.792;9.628;2022-11-03T18:11:22;9.40;99.90
18888;DHT22;9576;47.792;9.628;2022-11-03T18:14:42;9.40;99.90
18888;DHT22;9576;47.792;9.628;2022-11-03T18:17:45;9.40;99.90
18888;DHT22;9576;47.792;9.628;2022-11-03T18:20:49;9.50;99.90
18888;DHT22;9576;47.792;9.628;2022-11-03T18:23:53;9.60;99.90
18888;DHT22;9576;47.792;9.628;2022-11-03T18:26:55;9.60;99.90
18888;DHT22;9576;47.792;9.628;2022-11-03T18:29:57;9.60;99.90
18888;DHT22;9576;47.792;9.628;2022-11-03T18:32:59;9.60;99.90
18888;DHT22;9576;47.792;9.628;2022-11-03T18:36:03;9.50;99.90
18888;DHT22;9576;47.792;9.628;2022-11-03T18:39:09;9.50;99.90
18888;DHT22;9576;47.792;9.628;2022-11-03T18:42:13;9.50;99.90
18888;DHT22;9576;47.792;9.628;2022-11-03T18:45:17;9.50;99.90
18888;DHT22;9576;47.792;9.628;2022-11-03T18:48:19;9.50;99.90
18888;DHT22;9576;47.792;9.628;2022-11-03T18:51:21;9.50;99.90
18888;DHT22;9576;47.792;9.628;2022-11-03T18:54:25;9.40;99.90
18888;DHT22;9576;47.792;9.628;2022-11-03T18:57:30;9.50;99.90
18888;DHT22;9576;47.792;9.628;2022-11-03T19:00:31;9.50;99.90
18888;DHT22;9576;47.792;9.628;2022-11-03T19:03:33;9.60;99.90
18888;DHT22;9576;47.792;9.628;2022-11-03T19:06:36;9.50;99.90
18888;DHT22;9576;47.792;9.628;2022-11-03T19:09:39;9.40;99.90
18888;DHT22;9576;47.792;9.628;2022-11-03T19:12:43;9.30;99.90
18888;DHT22;9576;47.792;9.628;2022-11-03T19:15:46;9.20;99.90
18888;DHT22;9576;47.792;9.628;2022-11-03T19:18:48;9.20;99.90
18888;DHT22;9576;47.792;9.628;2022-11-03T19:21:50;9.30;99.90
18888;DHT22;9576;47.792;9.628;2022-11-03T19:24:53;9.30;99.90
18888;DHT22;9576;47.792;9.628;2022-11-03T19:27:55;9.20;99.90
18888;DHT22;9576;47.792;9.628;2022-11-03T19:30:57;9.30;99.90
18888;DHT22;9576;47.792;9.628;2022-11-03T19:33:59;9.30;99.90
18888;DHT22;9576;47.792;9.628;2022-11-03T19:37:01;9.30;99.90
18888;DHT22;9576;47.792;9.628;2022-11-03T19:40:10;9.30;99.90
18888;DHT22;9576;47.792;9.628;2022-11-03T19:43:13;9.30;99.90
18888;DHT22;9576;47.792;9.628;2022-11-03T19:46:18;9.40;99.90
18888;DHT22;9576;47.792;9.628;2022-11-03T19:49:20;9.30;99.90
18888;DHT22;9576;47.792;9.628;2022-11-03T19:52:25;9.30;99.90
18888;DHT22;9576;47.792;9.628;2022-11-03T19:55:31;9.40;99.90
18888;DHT22;9576;47.792;9.628;2022-11-03T19:58:33;9.50;99.90
18888;DHT22;9576;47.792;9.628;2022-11-03T20:01:35;9.50;99.90